createdAt,value
2023-04-23T00:02:23.184Z,55.20
2023-04-23T00:04:54.351Z,55.30
2023-04-23T00:07:22.123Z,55.20
2023-04-23T00:09:52.615Z,55.40
2023-04-23T00:12:21.112Z,55.40
2023-04-23T00:14:51.730Z,55.40
2023-04-23T00:17:20.050Z,55.50
2023-04-23T00:19:47.867Z,55.50
2023-04-23T00:22:17.050Z,55.60
2023-04-23T00:24:44.435Z,55.50
2023-04-23T00:27:11.886Z,55.60
2023-04-23T00:29:39.371Z,55.90
2023-04-23T00:32:07.748Z,55.90
2023-04-23T00:34:35.130Z,55.90
2023-04-23T00:37:06.138Z,55.80
2023-04-23T00:39:38.730Z,56.00
2023-04-23T00:42:12.422Z,55.90
2023-04-23T00:44:41.892Z,56.20
2023-04-23T00:47:10.659Z,56.20
2023-04-23T00:49:39.425Z,56.30
2023-04-23T00:52:08.942Z,56.30
2023-04-23T00:54:36.235Z,56.30
2023-04-23T00:57:08.036Z,56.40
2023-04-23T00:59:36.322Z,56.70
2023-04-23T01:02:04.411Z,56.50
2023-04-23T01:04:35.509Z,56.40
2023-04-23T01:07:03.726Z,56.50
2023-04-23T01:09:32.557Z,56.40
2023-04-23T01:12:02.620Z,56.20
2023-04-23T01:14:32.427Z,56.20
2023-04-23T01:17:03.061Z,56.20
2023-04-23T01:19:30.910Z,56.10
2023-04-23T01:22:01.262Z,56.10
2023-04-23T01:24:31.457Z,56.20
2023-04-23T01:27:03.859Z,56.10
2023-04-23T01:29:32.442Z,56.30
2023-04-23T01:32:00.460Z,56.40
2023-04-23T01:34:28.346Z,56.40
2023-04-23T01:36:58.610Z,56.20
2023-04-23T01:39:28.540Z,56.40
2023-04-23T01:41:58.470Z,56.40
2023-04-23T01:44:25.800Z,56.40
2023-04-23T01:46:53.563Z,56.50
2023-04-23T01:49:20.869Z,56.60
2023-04-23T01:51:50.517Z,56.70
2023-04-23T01:54:20.084Z,56.60
2023-04-23T01:56:47.388Z,56.70
2023-04-23T01:59:14.692Z,56.80
2023-04-23T02:01:48.752Z,57.00
2023-04-23T02:04:17.826Z,57.00
2023-04-23T02:06:50.004Z,57.00
2023-04-23T02:09:17.380Z,57.10
2023-04-23T02:11:44.867Z,57.00
2023-04-23T02:14:12.361Z,57.00
2023-04-23T02:16:39.884Z,57.10
2023-04-23T02:19:09.876Z,57.10
2023-04-23T02:21:37.162Z,57.10
2023-04-23T02:24:07.092Z,57.00
2023-04-23T02:26:34.561Z,56.90
2023-04-23T02:29:01.816Z,56.80
2023-04-23T02:31:29.204Z,56.90
2023-04-23T02:33:56.479Z,56.90
2023-04-23T02:36:23.906Z,57.10
2023-04-23T02:38:51.368Z,56.90
2023-04-23T02:41:18.617Z,57.00
2023-04-23T02:43:45.922Z,57.10
2023-04-23T02:46:13.196Z,56.90
2023-04-23T02:48:42.822Z,56.90
2023-04-23T02:51:12.335Z,57.10
2023-04-23T02:53:39.611Z,57.20
2023-04-23T02:56:09.427Z,57.00
2023-04-23T02:58:36.775Z,57.00
2023-04-23T03:01:05.242Z,57.20
2023-04-23T03:03:33.723Z,57.00
2023-04-23T03:06:02.827Z,57.00
2023-04-23T03:08:30.225Z,57.00
2023-04-23T03:10:57.484Z,57.00
2023-04-23T03:13:26.150Z,56.90
2023-04-23T03:15:56.047Z,57.00
2023-04-23T03:18:23.774Z,57.20
2023-04-23T03:20:51.074Z,57.50
2023-04-23T03:23:18.338Z,57.60
2023-04-23T03:25:48.184Z,57.70
2023-04-23T03:28:15.454Z,57.60
2023-04-23T03:30:45.225Z,57.60
2023-04-23T03:33:12.535Z,57.60
2023-04-23T03:35:42.176Z,57.40
2023-04-23T03:38:11.534Z,57.30
2023-04-23T03:40:38.833Z,57.40
2023-04-23T03:43:06.156Z,57.50
2023-04-23T03:45:33.422Z,57.50
2023-04-23T03:48:00.809Z,57.70
2023-04-23T03:50:28.182Z,57.60
2023-04-23T03:52:55.699Z,57.80
2023-04-23T03:55:25.382Z,57.80
2023-04-23T03:57:52.643Z,57.90
2023-04-23T04:00:19.955Z,57.90
2023-04-23T04:02:47.466Z,58.10
2023-04-23T04:05:18.030Z,58.20
2023-04-23T04:07:45.431Z,58.20
2023-04-23T04:10:12.852Z,58.20
2023-04-23T04:12:41.805Z,58.10
2023-04-23T04:15:09.593Z,58.30
2023-04-23T04:17:39.210Z,58.20
2023-04-23T04:20:13.347Z,58.10
2023-04-23T04:22:46.807Z,58.10
2023-04-23T04:25:16.709Z,58.30
2023-04-23T04:27:46.166Z,58.10
2023-04-23T04:30:13.947Z,58.10
2023-04-23T04:32:45.678Z,58.00
2023-04-23T04:35:14.531Z,58.20
2023-04-23T04:37:43.818Z,58.40
2023-04-23T04:40:14.717Z,58.30
2023-04-23T04:42:42.720Z,58.40
2023-04-23T04:45:10.491Z,58.30
2023-04-23T04:47:40.063Z,58.80
2023-04-23T04:50:08.065Z,58.90
2023-04-23T04:52:36.336Z,59.00
2023-04-23T04:55:06.826Z,59.10
2023-04-23T04:57:34.149Z,59.20
2023-04-23T05:00:19.077Z,59.00
2023-04-23T05:02:47.991Z,59.20
2023-04-23T05:05:15.452Z,59.10
2023-04-23T05:07:44.864Z,59.20
2023-04-23T05:10:13.352Z,59.40
2023-04-23T05:12:43.616Z,59.20
2023-04-23T05:15:15.458Z,59.40
2023-04-23T05:17:45.610Z,59.60
2023-04-23T05:20:13.121Z,59.30
2023-04-23T05:22:43.563Z,59.50
2023-04-23T05:25:12.163Z,59.30
2023-04-23T05:27:39.974Z,59.20
2023-04-23T05:30:09.574Z,59.30
2023-04-23T05:32:37.285Z,59.00
2023-04-23T05:35:06.151Z,59.60
2023-04-23T05:37:33.505Z,59.40
2023-04-23T05:40:02.624Z,59.40
2023-04-23T05:42:32.081Z,58.90
2023-04-23T05:44:59.415Z,58.80
2023-04-23T05:47:26.936Z,58.90
2023-04-23T05:49:54.359Z,58.70
2023-04-23T05:52:24.000Z,58.60
2023-04-23T05:54:52.182Z,58.60
2023-04-23T05:57:23.996Z,58.50
2023-04-23T05:59:51.426Z,58.50
2023-04-23T06:02:24.048Z,58.10
2023-04-23T06:04:52.700Z,58.60
2023-04-23T06:07:20.729Z,58.20
2023-04-23T06:09:48.135Z,58.50
2023-04-23T06:12:17.540Z,58.90
2023-04-23T06:14:47.713Z,58.90
2023-04-23T06:17:17.754Z,59.10
2023-04-23T06:19:47.568Z,59.10
2023-04-23T06:22:17.209Z,59.10
2023-04-23T06:24:51.258Z,59.10
2023-04-23T06:27:18.691Z,58.90
2023-04-23T06:29:46.207Z,58.90
2023-04-23T06:32:18.381Z,59.00
2023-04-23T06:35:00.776Z,59.00
2023-04-23T06:37:30.886Z,58.80
2023-04-23T06:40:01.489Z,58.40
2023-04-23T06:42:28.826Z,58.50
2023-04-23T06:44:57.138Z,57.80
2023-04-23T06:47:24.443Z,58.00
2023-04-23T06:49:52.209Z,58.20
2023-04-23T06:52:21.798Z,57.50
2023-04-23T06:54:49.320Z,57.00
2023-04-23T06:57:16.632Z,57.00
2023-04-23T06:59:43.996Z,56.50
2023-04-23T07:02:11.295Z,56.30
2023-04-23T07:04:38.784Z,56.40
2023-04-23T07:07:06.648Z,56.50
2023-04-23T07:09:34.068Z,56.10
2023-04-23T07:12:03.817Z,56.10
2023-04-23T07:14:31.118Z,55.10
2023-04-23T07:17:00.957Z,54.80
2023-04-23T07:19:28.417Z,54.60
2023-04-23T07:21:55.892Z,54.70
2023-04-23T07:24:23.211Z,54.70
2023-04-23T07:26:50.563Z,54.70
2023-04-23T07:29:20.274Z,54.40
2023-04-23T07:31:50.284Z,54.60
2023-04-23T07:34:20.531Z,54.40
2023-04-23T07:36:47.824Z,54.90
2023-04-23T07:39:17.584Z,54.20
2023-04-23T07:41:47.316Z,54.30
2023-04-23T07:44:17.136Z,54.30
2023-04-23T07:46:46.816Z,54.50
2023-04-23T07:49:14.252Z,53.90
2023-04-23T07:51:41.629Z,53.50
2023-04-23T07:54:09.391Z,53.50
2023-04-23T07:56:39.284Z,53.20
2023-04-23T07:59:07.740Z,53.70
2023-04-23T08:01:35.067Z,54.00
2023-04-23T08:04:04.914Z,53.70
2023-04-23T08:06:35.172Z,53.00
2023-04-23T08:09:06.408Z,53.50
2023-04-23T08:11:34.086Z,53.10
2023-04-23T08:14:04.054Z,53.20
2023-04-23T08:16:34.282Z,53.60
2023-04-23T08:19:06.213Z,53.60
2023-04-23T08:21:34.168Z,53.70
2023-04-23T08:24:03.238Z,53.60
2023-04-23T08:26:31.503Z,54.00
2023-04-23T08:29:01.075Z,54.00
2023-04-23T08:31:28.763Z,53.90
2023-04-23T08:33:58.499Z,53.50
2023-04-23T08:36:26.850Z,53.90
2023-04-23T08:38:54.150Z,53.60
2023-04-23T08:41:27.325Z,53.30
2023-04-23T08:44:13.533Z,53.20
2023-04-23T08:46:43.752Z,52.20
2023-04-23T08:49:19.100Z,53.10
2023-04-23T08:51:52.806Z,52.20
2023-04-23T08:54:31.597Z,52.60
2023-04-23T08:56:59.469Z,52.20
2023-04-23T08:59:29.738Z,52.30
2023-04-23T09:01:57.845Z,52.60
2023-04-23T09:04:26.071Z,52.70
2023-04-23T09:06:55.879Z,52.90
2023-04-23T09:09:31.733Z,52.00
2023-04-23T09:11:59.076Z,52.20
2023-04-23T09:14:26.443Z,51.60
2023-04-23T09:16:54.868Z,52.30
2023-04-23T09:19:22.838Z,51.20
2023-04-23T09:21:52.915Z,50.30
2023-04-23T09:24:26.061Z,51.20
2023-04-23T09:26:54.869Z,50.70
2023-04-23T09:29:25.203Z,50.10
2023-04-23T09:31:55.354Z,50.50
2023-04-23T09:34:24.812Z,50.10
2023-04-23T09:36:53.137Z,50.60
2023-04-23T09:39:23.949Z,50.50
2023-04-23T09:41:54.565Z,50.70
2023-04-23T09:44:22.974Z,50.40
2023-04-23T09:46:52.942Z,50.50
2023-04-23T09:49:20.623Z,50.80
2023-04-23T09:51:49.008Z,51.50
2023-04-23T09:54:26.065Z,51.10
2023-04-23T09:57:00.881Z,50.80
2023-04-23T09:59:46.826Z,50.60
2023-04-23T10:02:18.899Z,51.30
2023-04-23T10:04:56.300Z,51.40
2023-04-23T10:07:30.529Z,51.00
2023-04-23T10:09:57.814Z,50.60
2023-04-23T10:14:57.493Z,51.50
2023-04-23T10:17:24.983Z,51.80
2023-04-23T10:19:52.719Z,52.20
2023-04-23T10:22:22.768Z,51.60
2023-04-23T10:24:58.229Z,52.00
2023-04-23T10:27:44.570Z,51.90
2023-04-23T10:30:18.898Z,52.40
2023-04-23T10:32:48.324Z,51.90
2023-04-23T10:35:18.136Z,52.00
2023-04-23T10:37:48.228Z,52.60
2023-04-23T10:40:24.695Z,52.90
2023-04-23T10:42:52.131Z,52.80
2023-04-23T10:45:25.285Z,53.10
2023-04-23T10:47:56.270Z,52.50
2023-04-23T10:50:31.160Z,52.50
2023-04-23T10:52:58.990Z,52.30
2023-04-23T10:55:28.701Z,52.30
2023-04-23T10:57:57.735Z,51.90
2023-04-23T11:00:42.105Z,51.90
2023-04-23T11:03:32.872Z,52.20
2023-04-23T11:06:04.639Z,51.80
2023-04-23T11:08:32.812Z,52.40
2023-04-23T11:11:02.084Z,52.30
2023-04-23T11:13:30.334Z,51.30
2023-04-23T11:16:25.075Z,52.10
2023-04-23T11:19:03.845Z,52.30
2023-04-23T11:22:01.451Z,52.00
2023-04-23T11:24:37.356Z,52.40
2023-04-23T11:27:09.434Z,52.00
2023-04-23T11:29:41.752Z,51.50
2023-04-23T11:32:13.670Z,52.10
2023-04-23T11:34:43.351Z,51.90
2023-04-23T11:37:15.402Z,52.40
2023-04-23T11:39:44.811Z,52.70
2023-04-23T11:42:16.360Z,52.40
2023-04-23T11:44:47.100Z,52.30
2023-04-23T11:47:16.803Z,52.10
2023-04-23T11:49:45.279Z,52.60
2023-04-23T11:52:15.261Z,52.50
2023-04-23T11:54:42.553Z,52.40
2023-04-23T11:57:10.424Z,52.00
2023-04-23T11:59:38.118Z,52.80
2023-04-23T12:02:05.593Z,52.90
2023-04-23T12:04:38.702Z,52.00
2023-04-23T12:07:19.316Z,52.50
2023-04-23T12:09:55.381Z,53.20
2023-04-23T12:12:22.657Z,52.70
2023-04-23T12:14:50.066Z,53.00
2023-04-23T12:17:17.347Z,52.80
2023-04-23T12:19:46.802Z,52.50
2023-04-23T12:22:14.141Z,52.40
2023-04-23T12:24:51.560Z,52.10
2023-04-23T12:27:21.961Z,52.30
2023-04-23T12:30:01.976Z,52.80
2023-04-23T12:32:30.329Z,52.20
2023-04-23T12:35:00.136Z,52.30
2023-04-23T12:37:30.361Z,52.20
2023-04-23T12:39:59.466Z,52.80
2023-04-23T12:42:27.240Z,52.20
2023-04-23T12:45:08.713Z,52.20
2023-04-23T12:47:35.984Z,52.60
2023-04-23T12:50:05.696Z,53.00
2023-04-23T12:52:33.145Z,52.70
2023-04-23T12:55:01.391Z,52.80
2023-04-23T12:57:29.085Z,52.60
2023-04-23T12:59:56.602Z,52.10
2023-04-23T13:02:27.930Z,51.80
2023-04-23T13:05:01.289Z,51.80
2023-04-23T13:07:28.857Z,52.10
2023-04-23T13:09:57.241Z,51.30
2023-04-23T13:12:26.979Z,51.30
2023-04-23T13:14:56.664Z,51.00
2023-04-23T13:17:26.265Z,50.10
2023-04-23T13:19:57.135Z,50.60
2023-04-23T13:22:29.947Z,48.70
2023-04-23T13:24:59.835Z,50.40
2023-04-23T13:27:29.453Z,49.30
2023-04-23T13:29:57.118Z,49.40
2023-04-23T13:32:31.827Z,49.00
2023-04-23T13:35:04.073Z,48.70
2023-04-23T13:37:34.026Z,47.90
2023-04-23T13:40:01.641Z,47.80
2023-04-23T13:42:28.899Z,47.60
2023-04-23T13:45:04.874Z,48.00
2023-04-23T13:47:34.690Z,47.60
2023-04-23T13:50:05.498Z,47.90
2023-04-23T13:52:33.567Z,48.30
2023-04-23T13:55:03.985Z,47.30
2023-04-23T13:57:31.272Z,46.90
2023-04-23T14:00:00.188Z,46.50
2023-04-23T14:02:29.963Z,46.60
2023-04-23T14:04:58.537Z,46.70
2023-04-23T14:07:28.060Z,46.20
2023-04-23T14:09:57.469Z,45.50
2023-04-23T14:12:26.202Z,46.70
2023-04-23T14:14:58.524Z,46.90
2023-04-23T14:17:30.384Z,47.40
2023-04-23T14:19:57.881Z,47.30
2023-04-23T14:22:25.196Z,47.30
2023-04-23T14:25:02.519Z,46.10
2023-04-23T14:27:34.499Z,45.80
2023-04-23T14:30:05.428Z,46.00
2023-04-23T14:32:37.799Z,46.20
2023-04-23T14:35:05.547Z,46.80
2023-04-23T14:37:35.285Z,45.80
2023-04-23T14:40:02.628Z,45.30
2023-04-23T14:42:32.128Z,45.50
2023-04-23T14:45:01.959Z,45.90
2023-04-23T14:47:29.311Z,45.40
2023-04-23T14:49:57.555Z,45.10
2023-04-23T14:52:24.940Z,45.40
2023-04-23T14:54:54.022Z,45.40
2023-04-23T14:57:21.478Z,45.30
2023-04-23T14:59:48.789Z,45.30
2023-04-23T15:02:16.290Z,45.50
2023-04-23T15:04:43.664Z,45.20
2023-04-23T15:07:13.440Z,45.50
2023-04-23T15:09:41.006Z,45.40
2023-04-23T15:12:37.443Z,45.60
2023-04-23T15:15:05.981Z,46.30
2023-04-23T15:17:35.649Z,45.80
2023-04-23T15:20:06.234Z,46.50
2023-04-23T15:22:33.482Z,46.60
2023-04-23T15:25:03.119Z,46.50
2023-04-23T15:27:32.728Z,46.70
2023-04-23T15:30:00.033Z,46.70
2023-04-23T15:32:27.413Z,46.50
2023-04-23T15:34:57.291Z,46.20
2023-04-23T15:37:27.797Z,45.90
2023-04-23T15:40:00.828Z,45.70
2023-04-23T15:42:28.122Z,46.30
2023-04-23T15:44:58.142Z,46.30
2023-04-23T15:47:25.618Z,46.30
2023-04-23T15:49:52.865Z,46.90
2023-04-23T15:52:20.381Z,46.80
2023-04-23T15:54:47.734Z,47.40
2023-04-23T15:57:15.071Z,47.00
2023-04-23T15:59:43.855Z,46.70
2023-04-23T16:02:11.375Z,46.60
2023-04-23T16:04:38.905Z,46.50
2023-04-23T16:07:09.289Z,46.30
2023-04-23T16:09:36.759Z,46.20
2023-04-23T16:12:07.275Z,46.30
2023-04-23T16:14:36.122Z,46.50
2023-04-23T16:17:03.459Z,46.50
2023-04-23T16:19:31.142Z,46.80
2023-04-23T16:21:58.418Z,47.00
2023-04-23T16:24:25.778Z,46.90
2023-04-23T16:26:53.049Z,47.40
2023-04-23T16:29:23.359Z,47.50
2023-04-23T16:31:57.955Z,47.60
2023-04-23T16:34:25.791Z,47.50
2023-04-23T16:36:53.085Z,47.30
2023-04-23T16:39:20.769Z,47.60
2023-04-23T16:41:50.376Z,47.60
2023-04-23T16:44:17.727Z,47.90
2023-04-23T16:46:45.071Z,48.20
2023-04-23T16:49:14.952Z,48.30
2023-04-23T16:51:44.825Z,48.30
2023-04-23T16:54:14.206Z,48.50
2023-04-23T16:56:42.357Z,48.60
2023-04-23T16:59:12.192Z,48.30
2023-04-23T17:01:39.519Z,48.50
2023-04-23T17:04:09.593Z,49.00
2023-04-23T17:06:39.614Z,48.90
2023-04-23T17:09:08.825Z,48.70
2023-04-23T17:11:38.319Z,48.70
2023-04-23T17:14:05.659Z,48.30
2023-04-23T17:16:32.959Z,48.50
2023-04-23T17:19:00.329Z,48.40
2023-04-23T17:21:28.549Z,48.50
2023-04-23T17:23:55.816Z,48.50
2023-04-23T17:26:23.090Z,48.90
2023-04-23T17:28:52.753Z,49.10
2023-04-23T17:31:22.393Z,49.40
2023-04-23T17:33:50.438Z,49.40
2023-04-23T17:36:17.775Z,49.00
2023-04-23T17:38:45.958Z,49.10
2023-04-23T17:41:16.878Z,48.70
2023-04-23T17:43:51.498Z,48.20
2023-04-23T17:46:18.830Z,48.70
2023-04-23T17:48:50.609Z,48.50
2023-04-23T17:51:21.548Z,48.60
2023-04-23T17:53:50.460Z,48.80
2023-04-23T17:56:17.849Z,49.00
2023-04-23T17:58:45.258Z,48.90
2023-04-23T18:01:12.976Z,49.00
2023-04-23T18:03:40.430Z,49.20
2023-04-23T18:06:09.233Z,49.10
2023-04-23T18:08:38.383Z,49.20
2023-04-23T18:11:07.922Z,49.40
2023-04-23T18:13:38.581Z,49.50
2023-04-23T18:16:06.014Z,49.80
2023-04-23T18:18:33.349Z,49.90
2023-04-23T18:21:01.954Z,50.10
2023-04-23T18:23:29.547Z,51.00
2023-04-23T18:25:56.991Z,50.50
2023-04-23T18:28:26.883Z,50.60
2023-04-23T18:30:56.596Z,50.80
2023-04-23T18:33:47.846Z,51.00
2023-04-23T18:36:29.604Z,51.10
2023-04-23T18:39:01.912Z,51.10
2023-04-23T18:41:30.096Z,51.20
2023-04-23T18:43:59.766Z,51.30
2023-04-23T18:46:28.951Z,51.30
2023-04-23T18:49:04.473Z,51.50
2023-04-23T18:51:37.738Z,51.50
2023-04-23T18:54:09.969Z,51.40
2023-04-23T18:56:37.266Z,51.70
2023-04-23T18:59:04.569Z,51.70
2023-04-23T19:01:31.856Z,52.00
2023-04-23T19:03:59.331Z,52.20
2023-04-23T19:06:29.161Z,52.10
2023-04-23T19:08:56.367Z,52.10
2023-04-23T19:11:23.680Z,52.20
2023-04-23T19:13:50.917Z,52.20
2023-04-23T19:16:18.422Z,52.30
2023-04-23T19:18:48.547Z,52.10
2023-04-23T19:21:16.105Z,52.40
2023-04-23T19:23:45.724Z,52.50
2023-04-23T19:26:15.577Z,52.60
2023-04-23T19:28:42.830Z,52.80
2023-04-23T19:31:10.742Z,52.60
2023-04-23T19:33:38.081Z,52.80
2023-04-23T19:36:05.541Z,52.70
2023-04-23T19:38:32.882Z,52.70
2023-04-23T19:41:00.428Z,53.00
2023-04-23T19:43:27.680Z,52.90
2023-04-23T19:45:57.293Z,53.00
2023-04-23T19:48:26.877Z,53.20
2023-04-23T19:50:55.318Z,53.40
2023-04-23T19:53:24.701Z,53.40
2023-04-23T19:55:54.123Z,53.50
2023-04-23T19:58:21.433Z,53.70
2023-04-23T20:00:48.907Z,53.60
2023-04-23T20:03:16.530Z,53.60
2023-04-23T20:05:46.041Z,53.60
2023-04-23T20:08:25.913Z,53.80
2023-04-23T20:10:54.050Z,53.80
2023-04-23T20:13:24.048Z,53.70
2023-04-23T20:15:53.706Z,54.00
2023-04-23T20:18:21.788Z,54.00
2023-04-23T20:20:49.859Z,54.10
2023-04-23T20:23:17.146Z,54.60
2023-04-23T20:25:44.427Z,54.60
2023-04-23T20:28:12.071Z,54.70
2023-04-23T20:30:39.361Z,54.50
2023-04-23T20:33:10.456Z,54.70
2023-04-23T20:35:39.648Z,55.00
2023-04-23T20:38:07.840Z,54.80
2023-04-23T20:40:35.510Z,54.40
2023-04-23T20:43:04.857Z,54.80
2023-04-23T20:45:33.120Z,54.50
2023-04-23T20:48:02.380Z,55.00
2023-04-23T20:50:34.316Z,55.10
2023-04-23T20:53:01.600Z,55.30
2023-04-23T20:55:28.991Z,55.40
2023-04-23T20:57:56.315Z,55.40
2023-04-23T21:00:25.818Z,55.50
2023-04-23T21:02:53.814Z,55.60
2023-04-23T21:05:21.738Z,55.60
2023-04-23T21:07:49.047Z,55.80
2023-04-23T21:10:16.319Z,55.90
2023-04-23T21:12:44.087Z,55.80
2023-04-23T21:15:16.808Z,55.80
2023-04-23T21:17:47.730Z,55.60
2023-04-23T21:20:15.531Z,55.70
2023-04-23T21:22:42.927Z,55.60
2023-04-23T21:25:10.453Z,55.70
2023-04-23T21:27:38.102Z,55.80
2023-04-23T21:30:12.288Z,55.60
2023-04-23T21:32:39.624Z,55.80
2023-04-23T21:35:07.576Z,55.80
2023-04-23T21:37:38.111Z,56.10
2023-04-23T21:40:06.244Z,56.00
2023-04-23T21:42:33.671Z,56.10
2023-04-23T21:45:02.802Z,56.00
2023-04-23T21:47:33.462Z,55.90
2023-04-23T21:50:01.505Z,56.00
2023-04-23T21:52:31.292Z,55.80
2023-04-23T21:55:11.462Z,55.80
2023-04-23T21:57:41.872Z,55.90
2023-04-23T22:00:14.108Z,55.70
2023-04-23T22:02:42.987Z,55.80
2023-04-23T22:05:11.080Z,55.80
2023-04-23T22:07:41.392Z,55.70
2023-04-23T22:10:16.036Z,55.70
2023-04-23T22:12:46.599Z,55.70
2023-04-23T22:15:18.584Z,55.70
2023-04-23T22:17:50.312Z,55.80
2023-04-23T22:20:24.027Z,56.00
2023-04-23T22:22:51.330Z,56.20
2023-04-23T22:25:19.627Z,56.10
2023-04-23T22:27:47.221Z,56.10
2023-04-23T22:30:15.466Z,56.00
2023-04-23T22:32:42.871Z,56.40
2023-04-23T22:35:10.127Z,56.70
2023-04-23T22:37:37.951Z,56.40
2023-04-23T22:40:07.719Z,56.40
2023-04-23T22:42:35.641Z,56.40
2023-04-23T22:45:03.306Z,56.40
2023-04-23T22:47:30.735Z,56.30
2023-04-23T22:50:01.644Z,56.30
2023-04-23T22:52:29.025Z,56.60
2023-04-23T22:54:58.850Z,56.30
2023-04-23T22:57:26.490Z,56.50
2023-04-23T22:59:53.807Z,56.30
2023-04-23T23:02:21.102Z,56.60
2023-04-23T23:04:49.124Z,56.50
2023-04-23T23:07:16.478Z,56.80
2023-04-23T23:09:43.967Z,56.90
2023-04-23T23:12:11.512Z,56.80
2023-04-23T23:14:38.815Z,56.90
2023-04-23T23:17:06.478Z,57.00
2023-04-23T23:19:34.128Z,56.80
2023-04-23T23:22:04.010Z,56.80
2023-04-23T23:24:34.705Z,56.80
2023-04-23T23:27:02.967Z,56.90
2023-04-23T23:29:30.240Z,57.50
2023-04-23T23:31:58.116Z,56.80
2023-04-23T23:34:25.646Z,56.80
2023-04-23T23:36:56.372Z,57.20
2023-04-23T23:39:23.817Z,57.90
2023-04-23T23:41:51.131Z,58.10
2023-04-23T23:44:20.765Z,58.70
2023-04-23T23:46:52.029Z,59.00
2023-04-23T23:49:20.373Z,59.60
2023-04-23T23:51:47.945Z,60.20
2023-04-23T23:54:17.431Z,60.60
2023-04-23T23:56:44.687Z,60.90
2023-04-23T23:59:12.072Z,61.10
